Terminal Aerodrome Forecast
Issued by NWS Upton, NY

Home | Current Version | Previous Version | Text Only | Print | Product List | Glossary On
Versions: 1 2 3 4 5 6 7 8 9 10 11 12 13 14 15 16 17 18 19 20 21 22 23 24 25 26 27 28
000
FTUS41 KOKX 020100 AAA
TAFLGA
TAF AMD
KLGA 020123Z 0201/0224 VRB03KT 2SM -SN BR BKN015 OVC025
     FM020300 VRB04KT 5SM -FZRASNPL OVC012
     FM020600 25006KT 5SM BR OVC010
     FM020900 28009KT P6SM SCT015 BKN025
     FM021200 30012G19KT P6SM SCT025 BKN050
     FM021400 30017G24KT P6SM FEW050 SCT250=

USA.gov is the U.S. government's official web portal to all federal, state and local government web resources and services.